sensor_id;sensor_type;location;lat;lon;timestamp;P1;durP1;ratioP1;P2;durP2;ratioP2
8893;SDS011;4483;48.622;9.230;2023-02-28T00:00:35;2.10;;;1.90;;
8893;SDS011;4483;48.622;9.230;2023-02-28T00:03:03;2.33;;;1.60;;
8893;SDS011;4483;48.622;9.230;2023-02-28T00:05:30;2.23;;;2.03;;
8893;SDS011;4483;48.622;9.230;2023-02-28T00:07:56;2.70;;;1.80;;
8893;SDS011;4483;48.622;9.230;2023-02-28T00:10:24;2.03;;;1.93;;
8893;SDS011;4483;48.622;9.230;2023-02-28T00:12:53;2.00;;;1.80;;
8893;SDS011;4483;48.622;9.230;2023-02-28T00:15:23;2.37;;;1.90;;
8893;SDS011;4483;48.622;9.230;2023-02-28T00:17:50;4.00;;;2.07;;
8893;SDS011;4483;48.622;9.230;2023-02-28T00:20:17;3.63;;;1.80;;
8893;SDS011;4483;48.622;9.230;2023-02-28T00:22:46;2.60;;;1.93;;
8893;SDS011;4483;48.622;9.230;2023-02-28T00:25:15;4.40;;;2.17;;
8893;SDS011;4483;48.622;9.230;2023-02-28T00:27:42;2.17;;;1.90;;
8893;SDS011;4483;48.622;9.230;2023-02-28T00:30:14;2.20;;;1.70;;
8893;SDS011;4483;48.622;9.230;2023-02-28T00:32:44;2.17;;;1.97;;
8893;SDS011;4483;48.622;9.230;2023-02-28T00:35:11;2.50;;;1.60;;
8893;SDS011;4483;48.622;9.230;2023-02-28T00:37:38;1.90;;;1.80;;
8893;SDS011;4483;48.622;9.230;2023-02-28T00:40:05;2.93;;;2.07;;
8893;SDS011;4483;48.622;9.230;2023-02-28T00:42:35;2.47;;;1.80;;
8893;SDS011;4483;48.622;9.230;2023-02-28T00:45:02;2.67;;;2.07;;
8893;SDS011;4483;48.622;9.230;2023-02-28T00:47:29;2.47;;;1.80;;
8893;SDS011;4483;48.622;9.230;2023-02-28T00:49:58;1.90;;;1.80;;
8893;SDS011;4483;48.622;9.230;2023-02-28T00:52:25;4.10;;;1.90;;
8893;SDS011;4483;48.622;9.230;2023-02-28T00:54:51;2.43;;;1.90;;
8893;SDS011;4483;48.622;9.230;2023-02-28T00:57:18;1.60;;;1.50;;
8893;SDS011;4483;48.622;9.230;2023-02-28T00:59:45;2.10;;;1.73;;
8893;SDS011;4483;48.622;9.230;2023-02-28T01:02:11;2.77;;;1.83;;
8893;SDS011;4483;48.622;9.230;2023-02-28T01:04:38;2.07;;;1.90;;
8893;SDS011;4483;48.622;9.230;2023-02-28T01:07:06;3.77;;;2.00;;
8893;SDS011;4483;48.622;9.230;2023-02-28T01:09:34;2.00;;;1.70;;
8893;SDS011;4483;48.622;9.230;2023-02-28T01:12:00;2.30;;;1.90;;
8893;SDS011;4483;48.622;9.230;2023-02-28T01:14:27;2.00;;;1.83;;
8893;SDS011;4483;48.622;9.230;2023-02-28T01:16:54;2.07;;;1.70;;
8893;SDS011;4483;48.622;9.230;2023-02-28T01:19:20;2.23;;;2.13;;
8893;SDS011;4483;48.622;9.230;2023-02-28T01:21:47;2.13;;;2.00;;
8893;SDS011;4483;48.622;9.230;2023-02-28T01:24:15;2.17;;;1.80;;
8893;SDS011;4483;48.622;9.230;2023-02-28T01:26:42;2.20;;;2.00;;
8893;SDS011;4483;48.622;9.230;2023-02-28T01:29:08;3.80;;;2.00;;
8893;SDS011;4483;48.622;9.230;2023-02-28T01:31:35;2.87;;;1.87;;
8893;SDS011;4483;48.622;9.230;2023-02-28T01:34:02;2.27;;;1.77;;
8893;SDS011;4483;48.622;9.230;2023-02-28T01:36:29;3.00;;;2.50;;
8893;SDS011;4483;48.622;9.230;2023-02-28T01:38:56;2.73;;;2.17;;
8893;SDS011;4483;48.622;9.230;2023-02-28T01:41:24;2.63;;;2.10;;
8893;SDS011;4483;48.622;9.230;2023-02-28T01:43:55;2.77;;;1.93;;
8893;SDS011;4483;48.622;9.230;2023-02-28T01:46:24;2.47;;;1.80;;
8893;SDS011;4483;48.622;9.230;2023-02-28T01:48:52;4.80;;;1.87;;
8893;SDS011;4483;48.622;9.230;2023-02-28T01:51:25;2.67;;;1.90;;
8893;SDS011;4483;48.622;9.230;2023-02-28T01:53:56;3.63;;;2.13;;
8893;SDS011;4483;48.622;9.230;2023-02-28T01:56:28;2.37;;;2.10;;
8893;SDS011;4483;48.622;9.230;2023-02-28T01:58:56;2.50;;;1.90;;
8893;SDS011;4483;48.622;9.230;2023-02-28T02:01:23;3.57;;;2.40;;
8893;SDS011;4483;48.622;9.230;2023-02-28T02:03:53;2.47;;;2.00;;
8893;SDS011;4483;48.622;9.230;2023-02-28T02:06:22;5.33;;;2.10;;
8893;SDS011;4483;48.622;9.230;2023-02-28T02:08:51;2.20;;;2.00;;
8893;SDS011;4483;48.622;9.230;2023-02-28T02:11:19;3.97;;;2.00;;
8893;SDS011;4483;48.622;9.230;2023-02-28T02:14:02;5.47;;;2.10;;
8893;SDS011;4483;48.622;9.230;2023-02-28T02:16:52;4.07;;;2.33;;
8893;SDS011;4483;48.622;9.230;2023-02-28T02:22:47;2.03;;;1.83;;
8893;SDS011;4483;48.622;9.230;2023-02-28T02:25:44;2.30;;;2.10;;
8893;SDS011;4483;48.622;9.230;2023-02-28T02:31:49;2.93;;;2.30;;
8893;SDS011;4483;48.622;9.230;2023-02-28T02:34:50;2.37;;;2.17;;
8893;SDS011;4483;48.622;9.230;2023-02-28T02:37:27;4.03;;;2.30;;
8893;SDS011;4483;48.622;9.230;2023-02-28T02:40:04;2.57;;;2.23;;
8893;SDS011;4483;48.622;9.230;2023-02-28T02:42:39;3.30;;;2.57;;
8893;SDS011;4483;48.622;9.230;2023-02-28T02:45:11;2.20;;;2.00;;
8893;SDS011;4483;48.622;9.230;2023-02-28T02:47:42;3.83;;;2.27;;
8893;SDS011;4483;48.622;9.230;2023-02-28T02:50:13;2.93;;;1.83;;
8893;SDS011;4483;48.622;9.230;2023-02-28T02:52:48;3.90;;;2.30;;
8893;SDS011;4483;48.622;9.230;2023-02-28T02:55:17;2.50;;;2.13;;
8893;SDS011;4483;48.622;9.230;2023-02-28T02:57:47;3.03;;;2.47;;
8893;SDS011;4483;48.622;9.230;2023-02-28T03:00:17;2.40;;;2.20;;
8893;SDS011;4483;48.622;9.230;2023-02-28T03:02:46;2.30;;;2.10;;
8893;SDS011;4483;48.622;9.230;2023-02-28T03:05:17;5.40;;;2.70;;
8893;SDS011;4483;48.622;9.230;2023-02-28T03:07:46;3.17;;;2.57;;
8893;SDS011;4483;48.622;9.230;2023-02-28T03:10:29;2.67;;;2.47;;
8893;SDS011;4483;48.622;9.230;2023-02-28T03:13:18;2.73;;;2.03;;
8893;SDS011;4483;48.622;9.230;2023-02-28T03:16:00;5.53;;;2.10;;
8893;SDS011;4483;48.622;9.230;2023-02-28T03:18:42;4.57;;;2.53;;
8893;SDS011;4483;48.622;9.230;2023-02-28T03:21:21;3.13;;;2.10;;
8893;SDS011;4483;48.622;9.230;2023-02-28T03:23:56;2.50;;;2.30;;
8893;SDS011;4483;48.622;9.230;2023-02-28T03:26:31;3.00;;;2.23;;
8893;SDS011;4483;48.622;9.230;2023-02-28T03:29:02;4.27;;;2.30;;
8893;SDS011;4483;48.622;9.230;2023-02-28T03:31:32;2.50;;;2.30;;
8893;SDS011;4483;48.622;9.230;2023-02-28T03:34:04;2.67;;;2.30;;
8893;SDS011;4483;48.622;9.230;2023-02-28T03:36:37;2.60;;;2.40;;
8893;SDS011;4483;48.622;9.230;2023-02-28T03:39:09;3.13;;;2.53;;
8893;SDS011;4483;48.622;9.230;2023-02-28T03:41:41;2.87;;;2.53;;
8893;SDS011;4483;48.622;9.230;2023-02-28T03:44:13;2.53;;;2.33;;
8893;SDS011;4483;48.622;9.230;2023-02-28T03:46:44;4.43;;;2.37;;
8893;SDS011;4483;48.622;9.230;2023-02-28T03:49:15;4.67;;;2.40;;
8893;SDS011;4483;48.622;9.230;2023-02-28T03:51:46;6.00;;;2.90;;
8893;SDS011;4483;48.622;9.230;2023-02-28T03:54:15;2.50;;;2.23;;
8893;SDS011;4483;48.622;9.230;2023-02-28T03:56:46;2.40;;;2.20;;
8893;SDS011;4483;48.622;9.230;2023-02-28T03:59:20;2.40;;;2.20;;
8893;SDS011;4483;48.622;9.230;2023-02-28T04:01:53;3.33;;;2.47;;
8893;SDS011;4483;48.622;9.230;2023-02-28T04:04:20;3.47;;;2.50;;
8893;SDS011;4483;48.622;9.230;2023-02-28T04:06:50;3.23;;;2.63;;
8893;SDS011;4483;48.622;9.230;2023-02-28T04:09:18;3.60;;;2.83;;
8893;SDS011;4483;48.622;9.230;2023-02-28T04:11:45;3.03;;;2.43;;
8893;SDS011;4483;48.622;9.230;2023-02-28T04:14:16;2.77;;;2.57;;
8893;SDS011;4483;48.622;9.230;2023-02-28T04:16:43;4.23;;;2.87;;
8893;SDS011;4483;48.622;9.230;2023-02-28T04:19:10;3.67;;;2.70;;
8893;SDS011;4483;48.622;9.230;2023-02-28T04:21:38;5.90;;;2.60;;
8893;SDS011;4483;48.622;9.230;2023-02-28T04:24:08;3.57;;;2.70;;
8893;SDS011;4483;48.622;9.230;2023-02-28T04:26:39;2.67;;;2.47;;
8893;SDS011;4483;48.622;9.230;2023-02-28T04:29:08;3.53;;;2.53;;
8893;SDS011;4483;48.622;9.230;2023-02-28T04:31:35;5.03;;;2.57;;
8893;SDS011;4483;48.622;9.230;2023-02-28T04:34:02;2.93;;;2.63;;
8893;SDS011;4483;48.622;9.230;2023-02-28T04:36:29;2.97;;;2.67;;
8893;SDS011;4483;48.622;9.230;2023-02-28T04:38:55;4.10;;;2.97;;
8893;SDS011;4483;48.622;9.230;2023-02-28T04:41:23;3.33;;;2.77;;
8893;SDS011;4483;48.622;9.230;2023-02-28T04:43:50;2.97;;;2.60;;
8893;SDS011;4483;48.622;9.230;2023-02-28T04:46:17;4.93;;;3.00;;
8893;SDS011;4483;48.622;9.230;2023-02-28T04:48:45;3.10;;;2.50;;
8893;SDS011;4483;48.622;9.230;2023-02-28T04:51:12;3.77;;;2.60;;
8893;SDS011;4483;48.622;9.230;2023-02-28T04:53:40;3.67;;;2.93;;
8893;SDS011;4483;48.622;9.230;2023-02-28T04:56:09;3.30;;;2.80;;
8893;SDS011;4483;48.622;9.230;2023-02-28T04:58:38;3.57;;;3.00;;
8893;SDS011;4483;48.622;9.230;2023-02-28T05:01:06;3.07;;;2.77;;
8893;SDS011;4483;48.622;9.230;2023-02-28T05:03:42;4.53;;;3.17;;
8893;SDS011;4483;48.622;9.230;2023-02-28T05:06:09;3.53;;;2.90;;
8893;SDS011;4483;48.622;9.230;2023-02-28T05:08:37;4.07;;;3.10;;
8893;SDS011;4483;48.622;9.230;2023-02-28T05:11:05;3.77;;;2.97;;
8893;SDS011;4483;48.622;9.230;2023-02-28T05:13:33;3.57;;;3.00;;
8893;SDS011;4483;48.622;9.230;2023-02-28T05:16:02;4.17;;;3.07;;
8893;SDS011;4483;48.622;9.230;2023-02-28T05:18:28;3.40;;;3.10;;
8893;SDS011;4483;48.622;9.230;2023-02-28T05:20:55;4.20;;;3.00;;
8893;SDS011;4483;48.622;9.230;2023-02-28T05:23:22;4.77;;;3.43;;
8893;SDS011;4483;48.622;9.230;2023-02-28T05:25:49;4.23;;;3.00;;
8893;SDS011;4483;48.622;9.230;2023-02-28T05:28:16;5.13;;;3.40;;
8893;SDS011;4483;48.622;9.230;2023-02-28T05:30:44;5.80;;;3.23;;
8893;SDS011;4483;48.622;9.230;2023-02-28T05:33:12;4.80;;;3.47;;
8893;SDS011;4483;48.622;9.230;2023-02-28T05:35:39;3.73;;;3.20;;
8893;SDS011;4483;48.622;9.230;2023-02-28T05:38:07;5.50;;;3.67;;
8893;SDS011;4483;48.622;9.230;2023-02-28T05:40:33;4.40;;;3.33;;
8893;SDS011;4483;48.622;9.230;2023-02-28T05:43:00;6.23;;;3.37;;
8893;SDS011;4483;48.622;9.230;2023-02-28T05:45:27;5.97;;;3.27;;
8893;SDS011;4483;48.622;9.230;2023-02-28T05:47:54;4.23;;;3.50;;
8893;SDS011;4483;48.622;9.230;2023-02-28T05:50:22;5.00;;;4.00;;
8893;SDS011;4483;48.622;9.230;2023-02-28T05:52:49;4.40;;;3.13;;
8893;SDS011;4483;48.622;9.230;2023-02-28T05:55:16;4.97;;;3.90;;
8893;SDS011;4483;48.622;9.230;2023-02-28T05:57:42;4.17;;;3.60;;
8893;SDS011;4483;48.622;9.230;2023-02-28T06:00:09;4.97;;;3.40;;
8893;SDS011;4483;48.622;9.230;2023-02-28T06:02:38;4.47;;;3.33;;
8893;SDS011;4483;48.622;9.230;2023-02-28T06:05:06;4.60;;;3.57;;
8893;SDS011;4483;48.622;9.230;2023-02-28T06:07:40;4.47;;;3.90;;
8893;SDS011;4483;48.622;9.230;2023-02-28T06:10:07;5.27;;;3.50;;
8893;SDS011;4483;48.622;9.230;2023-02-28T06:12:34;3.73;;;3.40;;
8893;SDS011;4483;48.622;9.230;2023-02-28T06:15:00;4.10;;;3.60;;
8893;SDS011;4483;48.622;9.230;2023-02-28T06:17:27;6.63;;;3.90;;
8893;SDS011;4483;48.622;9.230;2023-02-28T06:19:54;5.00;;;3.40;;
8893;SDS011;4483;48.622;9.230;2023-02-28T06:22:21;3.67;;;3.13;;
8893;SDS011;4483;48.622;9.230;2023-02-28T06:24:49;4.00;;;3.63;;
8893;SDS011;4483;48.622;9.230;2023-02-28T06:27:15;5.57;;;3.70;;
8893;SDS011;4483;48.622;9.230;2023-02-28T06:29:42;4.00;;;3.63;;
8893;SDS011;4483;48.622;9.230;2023-02-28T06:32:09;4.00;;;3.47;;
8893;SDS011;4483;48.622;9.230;2023-02-28T06:34:35;6.57;;;4.10;;
8893;SDS011;4483;48.622;9.230;2023-02-28T06:37:02;4.07;;;3.67;;
8893;SDS011;4483;48.622;9.230;2023-02-28T06:39:29;4.40;;;4.00;;
8893;SDS011;4483;48.622;9.230;2023-02-28T06:41:57;7.40;;;4.20;;
8893;SDS011;4483;48.622;9.230;2023-02-28T06:44:23;7.60;;;4.30;;
8893;SDS011;4483;48.622;9.230;2023-02-28T06:46:50;5.80;;;4.50;;
8893;SDS011;4483;48.622;9.230;2023-02-28T06:49:17;4.30;;;3.90;;
8893;SDS011;4483;48.622;9.230;2023-02-28T06:51:44;5.23;;;3.87;;
8893;SDS011;4483;48.622;9.230;2023-02-28T06:54:11;5.70;;;3.87;;
8893;SDS011;4483;48.622;9.230;2023-02-28T06:56:38;4.13;;;3.70;;
8893;SDS011;4483;48.622;9.230;2023-02-28T06:59:07;5.87;;;3.90;;
8893;SDS011;4483;48.622;9.230;2023-02-28T07:01:33;5.23;;;4.07;;
8893;SDS011;4483;48.622;9.230;2023-02-28T07:04:00;5.53;;;4.40;;
8893;SDS011;4483;48.622;9.230;2023-02-28T07:06:27;4.27;;;3.87;;
8893;SDS011;4483;48.622;9.230;2023-02-28T07:08:54;8.17;;;4.27;;
8893;SDS011;4483;48.622;9.230;2023-02-28T07:11:21;5.77;;;3.90;;
8893;SDS011;4483;48.622;9.230;2023-02-28T07:13:50;4.80;;;4.07;;
8893;SDS011;4483;48.622;9.230;2023-02-28T07:16:19;4.73;;;4.27;;
8893;SDS011;4483;48.622;9.230;2023-02-28T07:18:46;4.47;;;3.90;;
8893;SDS011;4483;48.622;9.230;2023-02-28T07:21:13;4.57;;;4.10;;
8893;SDS011;4483;48.622;9.230;2023-02-28T07:23:39;5.93;;;4.13;;
8893;SDS011;4483;48.622;9.230;2023-02-28T07:26:07;7.03;;;4.30;;
8893;SDS011;4483;48.622;9.230;2023-02-28T07:28:37;5.17;;;3.83;;
8893;SDS011;4483;48.622;9.230;2023-02-28T07:31:04;5.30;;;4.27;;
8893;SDS011;4483;48.622;9.230;2023-02-28T07:33:33;6.30;;;4.83;;
8893;SDS011;4483;48.622;9.230;2023-02-28T07:36:00;7.20;;;4.67;;
8893;SDS011;4483;48.622;9.230;2023-02-28T07:38:28;5.03;;;4.13;;
8893;SDS011;4483;48.622;9.230;2023-02-28T07:40:54;5.23;;;4.70;;
8893;SDS011;4483;48.622;9.230;2023-02-28T07:43:21;8.93;;;5.03;;
8893;SDS011;4483;48.622;9.230;2023-02-28T07:45:47;6.73;;;4.47;;
8893;SDS011;4483;48.622;9.230;2023-02-28T07:48:14;6.53;;;4.77;;
8893;SDS011;4483;48.622;9.230;2023-02-28T07:50:42;8.93;;;4.53;;
8893;SDS011;4483;48.622;9.230;2023-02-28T07:53:09;6.40;;;4.03;;
8893;SDS011;4483;48.622;9.230;2023-02-28T07:55:35;7.33;;;4.50;;
8893;SDS011;4483;48.622;9.230;2023-02-28T07:58:02;5.77;;;4.27;;
8893;SDS011;4483;48.622;9.230;2023-02-28T08:00:28;6.50;;;4.47;;
8893;SDS011;4483;48.622;9.230;2023-02-28T08:02:56;5.77;;;4.07;;
8893;SDS011;4483;48.622;9.230;2023-02-28T08:05:24;6.93;;;4.60;;
8893;SDS011;4483;48.622;9.230;2023-02-28T08:07:52;6.30;;;4.77;;
8893;SDS011;4483;48.622;9.230;2023-02-28T08:10:19;5.70;;;4.83;;
8893;SDS011;4483;48.622;9.230;2023-02-28T08:12:46;6.53;;;5.07;;
8893;SDS011;4483;48.622;9.230;2023-02-28T08:15:12;7.63;;;5.67;;
8893;SDS011;4483;48.622;9.230;2023-02-28T08:17:39;7.87;;;4.80;;
8893;SDS011;4483;48.622;9.230;2023-02-28T08:20:06;6.13;;;4.47;;
8893;SDS011;4483;48.622;9.230;2023-02-28T08:22:35;6.10;;;4.70;;
8893;SDS011;4483;48.622;9.230;2023-02-28T08:25:03;6.03;;;4.67;;
8893;SDS011;4483;48.622;9.230;2023-02-28T08:27:32;7.70;;;5.47;;
8893;SDS011;4483;48.622;9.230;2023-02-28T08:29:59;7.43;;;5.20;;
8893;SDS011;4483;48.622;9.230;2023-02-28T08:32:26;6.63;;;5.23;;
8893;SDS011;4483;48.622;9.230;2023-02-28T08:34:52;6.37;;;4.83;;
8893;SDS011;4483;48.622;9.230;2023-02-28T08:37:19;6.70;;;5.40;;
8893;SDS011;4483;48.622;9.230;2023-02-28T08:39:45;5.20;;;4.60;;
8893;SDS011;4483;48.622;9.230;2023-02-28T08:42:13;7.13;;;5.10;;
8893;SDS011;4483;48.622;9.230;2023-02-28T08:44:40;5.77;;;4.67;;
8893;SDS011;4483;48.622;9.230;2023-02-28T08:47:07;7.73;;;4.67;;
8893;SDS011;4483;48.622;9.230;2023-02-28T08:49:34;6.23;;;5.10;;
8893;SDS011;4483;48.622;9.230;2023-02-28T08:52:00;8.00;;;5.53;;
8893;SDS011;4483;48.622;9.230;2023-02-28T08:54:27;6.67;;;5.63;;
8893;SDS011;4483;48.622;9.230;2023-02-28T08:56:56;6.00;;;5.17;;
8893;SDS011;4483;48.622;9.230;2023-02-28T08:59:24;6.60;;;4.97;;
8893;SDS011;4483;48.622;9.230;2023-02-28T09:01:51;5.73;;;4.73;;
8893;SDS011;4483;48.622;9.230;2023-02-28T09:04:17;6.70;;;4.60;;
8893;SDS011;4483;48.622;9.230;2023-02-28T09:06:44;6.70;;;5.03;;
8893;SDS011;4483;48.622;9.230;2023-02-28T09:09:11;5.63;;;5.03;;
8893;SDS011;4483;48.622;9.230;2023-02-28T09:11:37;6.87;;;5.00;;
8893;SDS011;4483;48.622;9.230;2023-02-28T09:14:04;6.07;;;5.17;;
8893;SDS011;4483;48.622;9.230;2023-02-28T09:16:32;5.63;;;4.53;;
8893;SDS011;4483;48.622;9.230;2023-02-28T09:19:00;7.87;;;5.00;;
8893;SDS011;4483;48.622;9.230;2023-02-28T09:21:26;6.17;;;5.00;;
8893;SDS011;4483;48.622;9.230;2023-02-28T09:23:53;8.83;;;5.53;;
8893;SDS011;4483;48.622;9.230;2023-02-28T09:26:21;9.27;;;4.33;;
8893;SDS011;4483;48.622;9.230;2023-02-28T09:28:49;6.43;;;5.47;;
8893;SDS011;4483;48.622;9.230;2023-02-28T09:31:17;8.10;;;4.87;;
8893;SDS011;4483;48.622;9.230;2023-02-28T09:33:48;6.33;;;4.60;;
8893;SDS011;4483;48.622;9.230;2023-02-28T09:36:15;7.57;;;5.50;;
8893;SDS011;4483;48.622;9.230;2023-02-28T09:38:42;8.37;;;5.00;;
8893;SDS011;4483;48.622;9.230;2023-02-28T09:41:13;7.77;;;5.23;;
8893;SDS011;4483;48.622;9.230;2023-02-28T09:43:43;5.67;;;5.07;;
8893;SDS011;4483;48.622;9.230;2023-02-28T09:46:19;6.23;;;4.80;;
8893;SDS011;4483;48.622;9.230;2023-02-28T09:48:55;11.23;;;5.03;;
8893;SDS011;4483;48.622;9.230;2023-02-28T09:51:30;7.17;;;5.27;;
8893;SDS011;4483;48.622;9.230;2023-02-28T09:54:04;7.50;;;5.80;;
8893;SDS011;4483;48.622;9.230;2023-02-28T09:56:32;12.50;;;5.33;;
8893;SDS011;4483;48.622;9.230;2023-02-28T09:59:04;10.83;;;5.23;;
8893;SDS011;4483;48.622;9.230;2023-02-28T10:01:39;7.70;;;5.47;;
8893;SDS011;4483;48.622;9.230;2023-02-28T10:04:12;7.60;;;5.40;;
8893;SDS011;4483;48.622;9.230;2023-02-28T10:06:50;8.80;;;6.17;;
8893;SDS011;4483;48.622;9.230;2023-02-28T10:09:18;8.83;;;6.00;;
8893;SDS011;4483;48.622;9.230;2023-02-28T10:11:49;10.93;;;6.47;;
8893;SDS011;4483;48.622;9.230;2023-02-28T10:14:18;6.10;;;5.47;;
8893;SDS011;4483;48.622;9.230;2023-02-28T10:16:47;13.03;;;5.67;;
8893;SDS011;4483;48.622;9.230;2023-02-28T10:19:20;9.07;;;5.47;;
8893;SDS011;4483;48.622;9.230;2023-02-28T10:21:52;9.70;;;4.80;;
8893;SDS011;4483;48.622;9.230;2023-02-28T10:24:26;4.97;;;4.47;;
8893;SDS011;4483;48.622;9.230;2023-02-28T10:26:58;10.50;;;5.60;;
8893;SDS011;4483;48.622;9.230;2023-02-28T10:29:28;7.40;;;6.20;;
8893;SDS011;4483;48.622;9.230;2023-02-28T10:31:58;8.90;;;6.37;;
8893;SDS011;4483;48.622;9.230;2023-02-28T10:34:29;6.83;;;5.27;;
8893;SDS011;4483;48.622;9.230;2023-02-28T10:36:56;9.27;;;6.00;;
8893;SDS011;4483;48.622;9.230;2023-02-28T10:39:39;7.20;;;4.80;;
8893;SDS011;4483;48.622;9.230;2023-02-28T10:42:18;7.90;;;5.33;;
8893;SDS011;4483;48.622;9.230;2023-02-28T10:44:47;7.07;;;4.37;;
8893;SDS011;4483;48.622;9.230;2023-02-28T10:47:14;8.87;;;5.40;;
8893;SDS011;4483;48.622;9.230;2023-02-28T10:49:48;6.37;;;5.27;;
8893;SDS011;4483;48.622;9.230;2023-02-28T10:52:32;6.37;;;5.27;;
8893;SDS011;4483;48.622;9.230;2023-02-28T10:55:13;5.80;;;4.90;;
8893;SDS011;4483;48.622;9.230;2023-02-28T10:57:42;8.57;;;5.47;;
8893;SDS011;4483;48.622;9.230;2023-02-28T11:00:12;10.37;;;5.80;;
8893;SDS011;4483;48.622;9.230;2023-02-28T11:02:41;7.97;;;5.47;;
8893;SDS011;4483;48.622;9.230;2023-02-28T11:05:24;11.13;;;5.50;;
8893;SDS011;4483;48.622;9.230;2023-02-28T11:07:52;9.10;;;6.27;;
8893;SDS011;4483;48.622;9.230;2023-02-28T11:10:30;7.33;;;5.73;;
8893;SDS011;4483;48.622;9.230;2023-02-28T11:12:59;8.30;;;5.40;;
8893;SDS011;4483;48.622;9.230;2023-02-28T11:15:28;7.23;;;5.63;;
8893;SDS011;4483;48.622;9.230;2023-02-28T11:17:57;9.00;;;5.93;;
8893;SDS011;4483;48.622;9.230;2023-02-28T11:20:28;8.90;;;5.67;;
8893;SDS011;4483;48.622;9.230;2023-02-28T11:22:57;8.17;;;5.50;;
8893;SDS011;4483;48.622;9.230;2023-02-28T11:25:26;9.47;;;6.67;;
8893;SDS011;4483;48.622;9.230;2023-02-28T11:27:59;8.13;;;6.70;;
8893;SDS011;4483;48.622;9.230;2023-02-28T11:30:34;7.70;;;5.20;;
8893;SDS011;4483;48.622;9.230;2023-02-28T11:33:16;6.07;;;5.47;;
8893;SDS011;4483;48.622;9.230;2023-02-28T11:35:50;8.10;;;5.47;;
8893;SDS011;4483;48.622;9.230;2023-02-28T11:38:19;5.57;;;4.90;;
8893;SDS011;4483;48.622;9.230;2023-02-28T11:40:47;5.37;;;4.87;;
8893;SDS011;4483;48.622;9.230;2023-02-28T11:43:28;10.23;;;5.60;;
8893;SDS011;4483;48.622;9.230;2023-02-28T11:46:11;6.07;;;5.33;;
8893;SDS011;4483;48.622;9.230;2023-02-28T11:48:50;7.13;;;5.90;;
8893;SDS011;4483;48.622;9.230;2023-02-28T11:51:27;8.10;;;5.80;;
8893;SDS011;4483;48.622;9.230;2023-02-28T11:54:02;6.67;;;5.37;;
8893;SDS011;4483;48.622;9.230;2023-02-28T11:56:45;9.20;;;5.33;;
8893;SDS011;4483;48.622;9.230;2023-02-28T11:59:20;6.70;;;5.90;;
8893;SDS011;4483;48.622;9.230;2023-02-28T12:02:05;5.83;;;4.97;;
8893;SDS011;4483;48.622;9.230;2023-02-28T12:04:48;6.80;;;6.10;;
8893;SDS011;4483;48.622;9.230;2023-02-28T12:07:25;16.77;;;9.73;;
8893;SDS011;4483;48.622;9.230;2023-02-28T12:09:59;6.20;;;5.50;;
8893;SDS011;4483;48.622;9.230;2023-02-28T12:12:38;7.57;;;5.50;;
8893;SDS011;4483;48.622;9.230;2023-02-28T12:15:17;8.83;;;5.70;;
8893;SDS011;4483;48.622;9.230;2023-02-28T12:18:04;6.63;;;5.80;;
8893;SDS011;4483;48.622;9.230;2023-02-28T12:20:45;5.40;;;4.83;;
8893;SDS011;4483;48.622;9.230;2023-02-28T12:23:22;6.57;;;5.63;;
8893;SDS011;4483;48.622;9.230;2023-02-28T12:26:05;6.77;;;5.37;;
8893;SDS011;4483;48.622;9.230;2023-02-28T12:28:40;7.50;;;5.53;;
8893;SDS011;4483;48.622;9.230;2023-02-28T12:31:14;5.83;;;5.13;;
8893;SDS011;4483;48.622;9.230;2023-02-28T12:33:47;7.57;;;5.57;;
8893;SDS011;4483;48.622;9.230;2023-02-28T12:36:18;6.07;;;5.47;;
8893;SDS011;4483;48.622;9.230;2023-02-28T12:38:50;6.70;;;5.60;;
8893;SDS011;4483;48.622;9.230;2023-02-28T12:41:22;8.13;;;6.53;;
8893;SDS011;4483;48.622;9.230;2023-02-28T12:43:57;6.87;;;5.80;;
8893;SDS011;4483;48.622;9.230;2023-02-28T12:46:29;6.83;;;5.83;;
8893;SDS011;4483;48.622;9.230;2023-02-28T12:49:00;6.13;;;5.47;;
8893;SDS011;4483;48.622;9.230;2023-02-28T12:51:32;6.07;;;5.47;;
8893;SDS011;4483;48.622;9.230;2023-02-28T12:54:07;6.33;;;5.67;;
8893;SDS011;4483;48.622;9.230;2023-02-28T12:56:43;7.17;;;5.90;;
8893;SDS011;4483;48.622;9.230;2023-02-28T12:59:17;8.70;;;6.03;;
8893;SDS011;4483;48.622;9.230;2023-02-28T13:05:01;7.33;;;5.33;;
8893;SDS011;4483;48.622;9.230;2023-02-28T13:08:02;7.43;;;5.80;;
8893;SDS011;4483;48.622;9.230;2023-02-28T13:10:39;8.07;;;5.37;;
8893;SDS011;4483;48.622;9.230;2023-02-28T13:13:11;6.10;;;5.50;;
8893;SDS011;4483;48.622;9.230;2023-02-28T13:15:41;7.80;;;5.80;;
8893;SDS011;4483;48.622;9.230;2023-02-28T13:18:28;7.20;;;5.90;;
8893;SDS011;4483;48.622;9.230;2023-02-28T13:20:57;6.67;;;5.83;;
8893;SDS011;4483;48.622;9.230;2023-02-28T13:23:40;6.37;;;5.77;;
8893;SDS011;4483;48.622;9.230;2023-02-28T13:26:25;6.13;;;5.50;;
8893;SDS011;4483;48.622;9.230;2023-02-28T13:29:30;6.30;;;5.60;;
8893;SDS011;4483;48.622;9.230;2023-02-28T13:34:47;6.50;;;5.30;;
8893;SDS011;4483;48.622;9.230;2023-02-28T13:37:44;6.77;;;6.03;;
8893;SDS011;4483;48.622;9.230;2023-02-28T13:40:31;8.97;;;5.37;;
8893;SDS011;4483;48.622;9.230;2023-02-28T13:43:05;5.87;;;5.27;;
8893;SDS011;4483;48.622;9.230;2023-02-28T13:45:34;5.90;;;5.30;;
8893;SDS011;4483;48.622;9.230;2023-02-28T13:48:04;7.50;;;5.37;;
8893;SDS011;4483;48.622;9.230;2023-02-28T13:50:41;6.07;;;5.47;;
8893;SDS011;4483;48.622;9.230;2023-02-28T13:53:20;6.27;;;5.47;;
8893;SDS011;4483;48.622;9.230;2023-02-28T13:55:58;6.17;;;5.47;;
8893;SDS011;4483;48.622;9.230;2023-02-28T13:58:37;7.27;;;5.57;;
8893;SDS011;4483;48.622;9.230;2023-02-28T14:04:10;6.30;;;5.40;;
8893;SDS011;4483;48.622;9.230;2023-02-28T14:06:48;6.20;;;5.60;;
8893;SDS011;4483;48.622;9.230;2023-02-28T14:09:19;6.30;;;5.70;;
8893;SDS011;4483;48.622;9.230;2023-02-28T14:11:50;6.63;;;5.60;;
8893;SDS011;4483;48.622;9.230;2023-02-28T14:17:18;8.23;;;5.53;;
8893;SDS011;4483;48.622;9.230;2023-02-28T14:19:45;7.30;;;5.73;;
8893;SDS011;4483;48.622;9.230;2023-02-28T14:22:16;6.03;;;5.43;;
8893;SDS011;4483;48.622;9.230;2023-02-28T14:25:08;6.43;;;5.83;;
8893;SDS011;4483;48.622;9.230;2023-02-28T14:27:43;6.93;;;5.67;;
8893;SDS011;4483;48.622;9.230;2023-02-28T14:30:29;6.20;;;5.60;;
8893;SDS011;4483;48.622;9.230;2023-02-28T14:33:18;9.03;;;5.50;;
8893;SDS011;4483;48.622;9.230;2023-02-28T14:35:57;6.63;;;5.17;;
8893;SDS011;4483;48.622;9.230;2023-02-28T14:38:29;8.63;;;5.50;;
8893;SDS011;4483;48.622;9.230;2023-02-28T14:40:58;9.27;;;5.63;;
8893;SDS011;4483;48.622;9.230;2023-02-28T14:43:29;7.97;;;5.67;;
8893;SDS011;4483;48.622;9.230;2023-02-28T14:45:56;5.63;;;5.10;;
8893;SDS011;4483;48.622;9.230;2023-02-28T14:48:26;5.80;;;5.30;;
8893;SDS011;4483;48.622;9.230;2023-02-28T14:50:55;7.70;;;6.00;;
8893;SDS011;4483;48.622;9.230;2023-02-28T14:53:25;6.00;;;5.40;;
8893;SDS011;4483;48.622;9.230;2023-02-28T14:55:53;6.87;;;5.57;;
8893;SDS011;4483;48.622;9.230;2023-02-28T14:58:22;5.83;;;5.23;;
8893;SDS011;4483;48.622;9.230;2023-02-28T15:00:52;5.87;;;5.33;;
8893;SDS011;4483;48.622;9.230;2023-02-28T15:03:21;7.37;;;5.20;;
8893;SDS011;4483;48.622;9.230;2023-02-28T15:05:54;7.70;;;5.37;;
8893;SDS011;4483;48.622;9.230;2023-02-28T15:08:22;6.30;;;5.13;;
8893;SDS011;4483;48.622;9.230;2023-02-28T15:10:51;7.20;;;5.50;;
8893;SDS011;4483;48.622;9.230;2023-02-28T15:13:20;7.43;;;5.63;;
8893;SDS011;4483;48.622;9.230;2023-02-28T15:15:48;6.60;;;5.40;;
8893;SDS011;4483;48.622;9.230;2023-02-28T15:18:22;7.47;;;5.60;;
8893;SDS011;4483;48.622;9.230;2023-02-28T15:20:57;5.67;;;5.17;;
8893;SDS011;4483;48.622;9.230;2023-02-28T15:23:30;5.97;;;5.23;;
8893;SDS011;4483;48.622;9.230;2023-02-28T15:25:58;5.73;;;5.10;;
8893;SDS011;4483;48.622;9.230;2023-02-28T15:28:25;11.00;;;5.73;;
8893;SDS011;4483;48.622;9.230;2023-02-28T15:30:55;6.47;;;5.23;;
8893;SDS011;4483;48.622;9.230;2023-02-28T15:33:23;6.70;;;5.80;;
8893;SDS011;4483;48.622;9.230;2023-02-28T15:36:02;5.73;;;5.23;;
8893;SDS011;4483;48.622;9.230;2023-02-28T15:38:33;7.20;;;5.40;;
8893;SDS011;4483;48.622;9.230;2023-02-28T15:41:01;5.80;;;5.20;;
8893;SDS011;4483;48.622;9.230;2023-02-28T15:43:33;8.70;;;5.87;;
8893;SDS011;4483;48.622;9.230;2023-02-28T15:46:04;6.20;;;5.57;;
8893;SDS011;4483;48.622;9.230;2023-02-28T15:48:34;6.43;;;5.40;;
8893;SDS011;4483;48.622;9.230;2023-02-28T15:51:06;5.97;;;5.33;;
8893;SDS011;4483;48.622;9.230;2023-02-28T15:53:35;6.30;;;5.37;;
8893;SDS011;4483;48.622;9.230;2023-02-28T15:56:06;5.73;;;5.13;;